Time;durP1;ratioP1;P1;durP2;ratioP2;P2;SDS_P1;SDS_P2;PMS_P1;PMS_P2;Temp;Humidity;BMP_temperature;BMP_pressure;BME280_temperature;BME280_humidity;BME280_pressure;Samples;Min_cycle;Max_cycle;Signal;HPM_P1;HPM_P2
2024/02/23 00:00:35;;;;;;;1.05;0.20;;;;;;;4.54;100.00;95292.94;5027916;28;20431;-61
2024/02/23 00:03:02;;;;;;;0.45;0.20;;;;;;;4.59;100.00;95303.66;5030672;28;20413;-61
2024/02/23 00:05:29;;;;;;;0.30;0.30;;;;;;;4.65;100.00;95293.75;5019415;28;20053;-60
2024/02/23 00:07:55;;;;;;;0.35;0.30;;;;;;;4.61;100.00;95303.41;5027594;28;20564;-61
2024/02/23 00:10:22;;;;;;;2.38;0.47;;;;;;;4.55;100.00;95292.69;5034261;28;20508;-62
2024/02/23 00:12:49;;;;;;;3.13;0.55;;;;;;;4.51;100.00;95296.13;5027534;28;20045;-61
2024/02/23 00:15:15;;;;;;;0.38;0.30;;;;;;;4.61;100.00;95300.72;5022121;28;20081;-62
2024/02/23 00:17:42;;;;;;;0.85;0.40;;;;;;;4.59;100.00;95300.16;5033035;28;20490;-61
2024/02/23 00:20:11;;;;;;;2.55;0.77;;;;;;;4.55;100.00;95298.03;5029155;28;20037;-61
2024/02/23 00:22:38;;;;;;;3.13;0.30;;;;;;;4.56;100.00;95314.91;5035703;28;20065;-61
2024/02/23 00:25:05;;;;;;;1.23;0.43;;;;;;;4.60;100.00;95315.19;5030811;28;20033;-62
2024/02/23 00:27:32;;;;;;;1.92;0.40;;;;;;;4.72;100.00;95306.91;5028462;28;20112;-61
2024/02/23 00:29:59;;;;;;;4.13;0.80;;;;;;;4.60;100.00;95326.72;5027098;28;20408;-61
2024/02/23 00:32:25;;;;;;;3.17;0.40;;;;;;;4.60;100.00;95332.06;5017874;28;20523;-61
2024/02/23 00:34:52;;;;;;;2.33;0.40;;;;;;;4.57;100.00;95342.53;5023278;28;20048;-61
2024/02/23 00:37:18;;;;;;;2.70;0.65;;;;;;;4.52;100.00;95360.19;5025608;28;20046;-62
2024/02/23 00:39:45;;;;;;;1.48;0.25;;;;;;;4.58;100.00;95350.31;5030665;28;20538;-61
2024/02/23 00:42:12;;;;;;;2.30;0.60;;;;;;;4.52;100.00;95349.47;5030671;28;20051;-61
2024/02/23 00:44:38;;;;;;;1.58;0.20;;;;;;;4.51;100.00;95355.09;5029036;28;20037;-61
2024/02/23 00:47:05;;;;;;;1.30;0.32;;;;;;;4.52;100.00;95349.47;5023168;28;20409;-61
2024/02/23 00:49:31;;;;;;;8.82;0.73;;;;;;;4.53;100.00;95348.41;5024723;28;20037;-62
2024/02/23 00:51:58;;;;;;;2.72;0.40;;;;;;;4.53;100.00;95345.72;5015552;28;20042;-61
2024/02/23 00:54:24;;;;;;;5.95;0.68;;;;;;;4.51;100.00;95353.22;5036696;28;20737;-62
2024/02/23 00:56:51;;;;;;;3.22;0.52;;;;;;;4.55;100.00;95361.53;5025029;28;20049;-61
2024/02/23 00:59:21;;;;;;;2.00;0.68;;;;;;;4.53;100.00;95375.22;5024087;28;20107;-61
2024/02/23 01:01:48;;;;;;;3.03;0.43;;;;;;;4.58;100.00;95378.97;5024398;28;20050;-61
2024/02/23 01:04:14;;;;;;;2.42;0.40;;;;;;;4.64;100.00;95372.56;5024208;28;20127;-61
2024/02/23 01:06:41;;;;;;;2.47;0.50;;;;;;;4.69;100.00;95380.63;5028009;28;20053;-61
2024/02/23 01:09:08;;;;;;;1.67;0.38;;;;;;;4.66;100.00;95378.47;5028218;28;20099;-61
2024/02/23 01:11:34;;;;;;;4.30;1.10;;;;;;;4.66;100.00;95373.94;5025227;28;20217;-61
2024/02/23 01:14:01;;;;;;;1.83;0.60;;;;;;;4.62;100.00;95366.66;5033932;28;20503;-61
2024/02/23 01:16:27;;;;;;;1.95;0.40;;;;;;;4.59;100.00;95372.53;5025670;28;20045;-62
2024/02/23 01:18:54;;;;;;;1.58;0.60;;;;;;;4.55;100.00;95348.97;5026724;28;20037;-61
2024/02/23 01:21:20;;;;;;;3.28;0.73;;;;;;;4.56;100.00;95355.09;5028454;28;20050;-62
2024/02/23 01:23:47;;;;;;;0.70;0.30;;;;;;;4.64;100.00;95364.53;5031124;28;20037;-62
2024/02/23 01:26:14;;;;;;;3.20;0.60;;;;;;;4.61;100.00;95383.81;5028716;28;20049;-61
2024/02/23 01:28:40;;;;;;;0.93;0.30;;;;;;;4.67;100.00;95370.16;5025375;28;20049;-63
2024/02/23 01:31:11;;;;;;;4.78;0.70;;;;;;;4.48;100.00;95379.72;5031371;28;20562;-61
2024/02/23 01:33:39;;;;;;;4.53;0.60;;;;;;;4.54;100.00;95376.03;5027764;28;20045;-61
2024/02/23 01:36:06;;;;;;;4.55;0.60;;;;;;;4.57;100.00;95388.09;5027741;28;20283;-61
2024/02/23 01:38:33;;;;;;;2.75;0.55;;;;;;;4.57;100.00;95390.78;5025107;28;20552;-62
2024/02/23 01:41:00;;;;;;;0.20;0.20;;;;;;;4.47;100.00;95394.22;5019151;28;20049;-62
2024/02/23 01:43:27;;;;;;;1.05;0.45;;;;;;;4.45;100.00;95413.22;5015022;28;20046;-61
2024/02/23 01:45:54;;;;;;;3.50;0.57;;;;;;;4.48;100.00;95407.34;5014895;28;20117;-61
2024/02/23 01:48:20;;;;;;;1.33;0.55;;;;;;;4.57;100.00;95412.22;5016370;28;20041;-61
2024/02/23 01:50:47;;;;;;;2.92;0.80;;;;;;;4.60;100.00;95414.38;5023191;28;20555;-61
2024/02/23 01:53:14;;;;;;;4.05;0.65;;;;;;;4.32;100.00;95421.75;5012474;28;20112;-62
2024/02/23 01:55:41;;;;;;;1.15;0.40;;;;;;;4.22;100.00;95428.66;5029066;28;20524;-61
2024/02/23 01:58:08;;;;;;;1.77;0.52;;;;;;;4.13;100.00;95414.16;5017834;28;20045;-61
2024/02/23 02:00:35;;;;;;;1.27;0.45;;;;;;;4.08;100.00;95417.59;5030905;28;20579;-61
2024/02/23 02:03:03;;;;;;;1.90;0.30;;;;;;;3.97;100.00;95411.38;5019659;28;20041;-62
2024/02/23 02:05:30;;;;;;;2.03;0.40;;;;;;;4.03;100.00;95414.88;5013059;28;20061;-62
2024/02/23 02:08:00;;;;;;;1.70;0.30;;;;;;;3.88;100.00;95426.31;5022733;28;20042;-61
2024/02/23 02:10:27;;;;;;;1.25;0.52;;;;;;;3.89;100.00;95414.53;5020546;28;20092;-62
2024/02/23 02:12:53;;;;;;;1.23;0.47;;;;;;;3.94;100.00;95424.47;5025210;28;20055;-62
2024/02/23 02:15:21;;;;;;;3.22;0.47;;;;;;;3.90;100.00;95421.47;5024812;28;20037;-62
2024/02/23 02:17:48;;;;;;;0.75;0.30;;;;;;;3.71;100.00;95432.59;5030452;28;20048;-63
2024/02/23 02:20:18;;;;;;;0.65;0.22;;;;;;;3.66;100.00;95427.22;5028922;28;20033;-61
2024/02/23 02:22:45;;;;;;;3.88;0.40;;;;;;;3.54;100.00;95430.03;5025471;28;20041;-60
2024/02/23 02:25:15;;;;;;;0.95;0.43;;;;;;;3.54;100.00;95431.94;5015311;28;20072;-62
2024/02/23 02:27:42;;;;;;;3.55;0.75;;;;;;;3.51;100.00;95430.56;5024578;28;20305;-61
2024/02/23 02:30:09;;;;;;;3.00;0.50;;;;;;;3.61;100.00;95429.84;5028386;28;20124;-62
2024/02/23 02:32:35;;;;;;;2.03;0.40;;;;;;;3.57;100.00;95426.06;5030368;28;20047;-63
2024/02/23 02:35:04;;;;;;;1.38;0.57;;;;;;;3.56;100.00;95419.09;5032657;28;20717;-63
2024/02/23 02:37:30;;;;;;;2.53;0.40;;;;;;;3.45;100.00;95421.69;5022761;28;20033;-62
2024/02/23 02:39:57;;;;;;;4.05;0.50;;;;;;;3.46;100.00;95417.16;5022560;28;20099;-62
2024/02/23 02:42:23;;;;;;;0.63;0.30;;;;;;;3.51;100.00;95411.84;5020999;28;20049;-63
2024/02/23 02:44:49;;;;;;;2.47;0.40;;;;;;;3.45;100.00;95411.00;5034380;28;20535;-62
2024/02/23 02:47:16;;;;;;;1.17;0.50;;;;;;;3.48;100.00;95413.16;5030575;28;20577;-62
2024/02/23 02:49:43;;;;;;;3.13;0.40;;;;;;;3.49;100.00;95406.75;5038561;28;20039;-62
2024/02/23 02:52:09;;;;;;;1.23;0.30;;;;;;;3.51;100.00;95403.81;5027039;28;20124;-61
2024/02/23 02:54:36;;;;;;;1.85;0.20;;;;;;;3.51;100.00;95404.59;5016860;28;20041;-62
2024/02/23 02:57:02;;;;;;;2.72;0.52;;;;;;;3.45;100.00;95418.19;5007437;28;20050;-62
2024/02/23 02:59:29;;;;;;;4.22;1.38;;;;;;;3.50;100.00;95419.06;5034490;28;20044;-61
2024/02/23 03:01:57;;;;;;;3.10;0.40;;;;;;;3.66;100.00;95419.19;5023521;28;20121;-61
2024/02/23 03:04:23;;;;;;;0.82;0.25;;;;;;;3.67;100.00;95420.78;5021882;28;20048;-62
2024/02/23 03:06:50;;;;;;;0.70;0.32;;;;;;;3.75;100.00;95430.22;5030285;28;20420;-61
2024/02/23 03:09:17;;;;;;;1.55;0.77;;;;;;;3.84;100.00;95417.16;5017255;28;20132;-62
2024/02/23 03:11:43;;;;;;;2.65;0.32;;;;;;;3.90;100.00;95416.94;5022099;28;20144;-62
2024/02/23 03:14:10;;;;;;;1.52;0.35;;;;;;;3.82;100.00;95412.06;5030235;28;20033;-61
2024/02/23 03:16:37;;;;;;;0.38;0.30;;;;;;;3.91;100.00;95417.75;5033413;28;20046;-61
2024/02/23 03:19:04;;;;;;;2.53;0.68;;;;;;;3.83;100.00;95423.59;5023619;28;20501;-62
2024/02/23 03:21:30;;;;;;;3.03;0.50;;;;;;;3.70;100.00;95395.38;5026189;28;20053;-61
2024/02/23 03:23:57;;;;;;;1.10;0.45;;;;;;;3.67;100.00;95398.56;5030451;28;20042;-61
2024/02/23 03:26:23;;;;;;;2.38;0.30;;;;;;;3.67;100.00;95403.91;5019506;28;20041;-62
2024/02/23 03:28:50;;;;;;;0.30;0.20;;;;;;;3.72;100.00;95399.41;5031576;28;20069;-61
2024/02/23 03:31:17;;;;;;;1.23;0.45;;;;;;;3.82;100.00;95408.56;5030937;28;20068;-63
2024/02/23 03:33:43;;;;;;;0.93;0.40;;;;;;;3.78;100.00;95408.28;5030999;28;20042;-63
2024/02/23 03:36:10;;;;;;;2.35;0.70;;;;;;;3.72;100.00;95412.81;5025334;28;20071;-63
2024/02/23 03:38:36;;;;;;;2.33;0.50;;;;;;;3.77;100.00;95401.34;5027395;28;20060;-61
2024/02/23 03:41:03;;;;;;;1.52;0.32;;;;;;;3.72;100.00;95404.78;5020523;28;20033;-62
2024/02/23 03:43:30;;;;;;;3.28;0.45;;;;;;;3.68;100.00;95397.53;5022174;28;20049;-62
2024/02/23 03:45:59;;;;;;;1.42;0.40;;;;;;;3.70;100.00;95414.94;5037490;28;20118;-63
2024/02/23 03:48:26;;;;;;;1.48;0.75;;;;;;;3.60;100.00;95414.84;5026088;28;20385;-63
2024/02/23 03:50:54;;;;;;;2.15;0.30;;;;;;;3.54;100.00;95399.81;5025393;28;20037;-62
2024/02/23 03:53:20;;;;;;;3.20;1.02;;;;;;;3.52;100.00;95413.44;5024966;28;20087;-62
2024/02/23 03:55:47;;;;;;;2.20;0.80;;;;;;;3.53;100.00;95422.28;5025627;28;20045;-62
2024/02/23 03:58:13;;;;;;;1.05;0.40;;;;;;;3.58;100.00;95428.47;5025901;28;20388;-62
2024/02/23 04:00:40;;;;;;;1.27;0.22;;;;;;;3.59;100.00;95426.63;5037749;28;20425;-63
2024/02/23 04:03:06;;;;;;;3.47;0.50;;;;;;;3.54;100.00;95439.97;5028844;28;20601;-63
2024/02/23 04:05:33;;;;;;;0.45;0.30;;;;;;;3.47;100.00;95430.25;5022611;28;20046;-62
2024/02/23 04:07:59;;;;;;;2.08;1.10;;;;;;;3.45;100.00;95411.00;5034858;28;20055;-61
2024/02/23 04:10:26;;;;;;;3.17;0.30;;;;;;;3.34;100.00;95407.41;5026597;28;20037;-62
2024/02/23 04:12:53;;;;;;;1.65;0.50;;;;;;;3.43;100.00;95406.97;5032074;28;20072;-62
2024/02/23 04:15:19;;;;;;;0.95;0.40;;;;;;;3.38;100.00;95411.19;5028335;28;21806;-62
2024/02/23 04:17:46;;;;;;;2.60;0.47;;;;;;;3.33;100.00;95415.69;5029628;28;20037;-61
2024/02/23 04:20:13;;;;;;;1.73;0.40;;;;;;;3.37;100.00;95416.81;5037109;28;20061;-63
2024/02/23 04:22:40;;;;;;;4.45;0.40;;;;;;;3.31;100.00;95428.53;5018721;28;20091;-63
2024/02/23 04:25:07;;;;;;;3.20;0.73;;;;;;;3.19;100.00;95415.28;5024935;28;20624;-63
2024/02/23 04:27:33;;;;;;;1.52;0.32;;;;;;;3.23;100.00;95417.22;5020388;28;20124;-61
2024/02/23 04:30:00;;;;;;;2.20;0.55;;;;;;;3.21;100.00;95416.66;5023964;28;20033;-61
2024/02/23 04:32:26;;;;;;;2.38;0.57;;;;;;;3.23;100.00;95403.84;5024717;28;20091;-63
2024/02/23 04:34:53;;;;;;;2.17;0.50;;;;;;;3.23;100.00;95393.16;5018346;28;20575;-62
2024/02/23 04:37:19;;;;;;;1.65;0.63;;;;;;;3.23;100.00;95406.53;5029773;28;20643;-62
2024/02/23 04:39:46;;;;;;;0.85;0.43;;;;;;;3.33;100.00;95405.81;5019429;28;20046;-63
2024/02/23 04:42:13;;;;;;;3.55;0.60;;;;;;;3.23;100.00;95401.19;5021937;28;20663;-63
2024/02/23 04:44:42;;;;;;;3.70;0.52;;;;;;;3.20;100.00;95400.84;5032161;28;20038;-61
2024/02/23 04:47:09;;;;;;;0.68;0.22;;;;;;;3.19;100.00;95417.97;5022567;28;20069;-62
2024/02/23 04:49:35;;;;;;;1.45;0.30;;;;;;;3.09;100.00;95410.66;5023732;28;20042;-62
2024/02/23 04:52:02;;;;;;;1.10;0.40;;;;;;;3.04;100.00;95407.94;5020696;28;20041;-62
2024/02/23 04:54:28;;;;;;;1.92;0.70;;;;;;;3.13;100.00;95406.41;5034989;28;20115;-62
2024/02/23 04:56:55;;;;;;;2.15;0.60;;;;;;;3.16;100.00;95407.81;5025010;28;20128;-62
2024/02/23 04:59:22;;;;;;;5.13;0.70;;;;;;;3.17;100.00;95399.50;5027264;28;20041;-62
2024/02/23 05:01:49;;;;;;;1.77;0.50;;;;;;;3.05;100.00;95396.16;5024444;28;20497;-62
2024/02/23 05:04:15;;;;;;;0.65;0.38;;;;;;;2.96;100.00;95395.84;5029616;28;20647;-62
2024/02/23 05:06:43;;;;;;;3.22;0.65;;;;;;;2.88;100.00;95406.97;5038716;28;20045;-62
2024/02/23 05:09:10;;;;;;;5.28;0.60;;;;;;;2.83;100.00;95400.50;5029654;28;20037;-62
2024/02/23 05:11:37;;;;;;;3.78;0.52;;;;;;;2.79;100.00;95406.59;5017811;28;20432;-62
2024/02/23 05:14:04;;;;;;;1.83;0.30;;;;;;;2.66;100.00;95394.44;5029339;28;20033;-62
2024/02/23 05:16:30;;;;;;;1.77;0.80;;;;;;;2.58;100.00;95398.38;5029353;28;20041;-61
2024/02/23 05:18:57;;;;;;;1.60;0.50;;;;;;;2.52;100.00;95407.38;5020471;28;20038;-62
2024/02/23 05:21:25;;;;;;;1.55;0.60;;;;;;;2.46;100.00;95407.31;5028208;28;20048;-62
2024/02/23 05:23:52;;;;;;;1.70;0.90;;;;;;;2.38;100.00;95402.41;5030295;28;20122;-62
2024/02/23 05:26:18;;;;;;;2.80;0.70;;;;;;;2.32;100.00;95417.56;5029722;28;20094;-42
2024/02/23 05:28:45;;;;;;;3.22;0.43;;;;;;;2.27;100.00;95414.00;5031327;28;20112;-46
2024/02/23 05:31:12;;;;;;;3.30;0.63;;;;;;;2.28;100.00;95410.31;5017511;28;20033;-44
2024/02/23 05:33:38;;;;;;;3.78;1.05;;;;;;;2.33;100.00;95429.06;5023613;28;20045;-44
2024/02/23 05:36:05;;;;;;;2.40;0.60;;;;;;;2.32;100.00;95422.13;5022508;28;20041;-44
2024/02/23 05:38:32;;;;;;;1.95;0.80;;;;;;;2.25;100.00;95440.16;5029779;28;20071;-46
2024/02/23 05:40:58;;;;;;;4.45;0.77;;;;;;;2.20;100.00;95441.72;5031729;28;20094;-43
2024/02/23 05:43:25;;;;;;;3.22;0.90;;;;;;;2.19;100.00;95441.97;5022007;28;20038;-45
2024/02/23 05:45:52;;;;;;;2.47;0.70;;;;;;;2.12;100.00;95446.66;5018532;28;20041;-68
2024/02/23 05:48:19;;;;;;;3.45;0.47;;;;;;;2.01;100.00;95433.16;5027262;28;20056;-68
2024/02/23 05:50:45;;;;;;;2.47;0.63;;;;;;;1.91;100.00;95441.00;5030232;28;20041;-68
2024/02/23 05:53:12;;;;;;;2.08;0.80;;;;;;;1.93;100.00;95442.41;5025456;28;20049;-68
2024/02/23 05:55:38;;;;;;;3.72;0.80;;;;;;;1.91;100.00;95435.69;5026461;28;20112;-68
2024/02/23 05:58:05;;;;;;;3.00;0.57;;;;;;;1.90;100.00;95439.41;5013999;28;20038;-68
2024/02/23 06:00:32;;;;;;;3.50;0.47;;;;;;;1.89;100.00;95451.13;5031138;28;20048;-68
2024/02/23 06:02:58;;;;;;;1.58;0.70;;;;;;;1.92;100.00;95448.78;5031169;28;20045;-68
2024/02/23 06:05:25;;;;;;;1.75;0.60;;;;;;;1.80;100.00;95456.88;5035439;28;20045;-68
2024/02/23 06:07:54;;;;;;;1.50;0.60;;;;;;;1.64;100.00;95465.69;5016752;28;20038;-69
2024/02/23 06:10:21;;;;;;;2.95;0.80;;;;;;;1.79;100.00;95454.44;5021239;28;20095;-68
2024/02/23 06:12:47;;;;;;;4.38;0.85;;;;;;;1.68;100.00;95462.31;5017556;28;20044;-68
2024/02/23 06:15:14;;;;;;;3.00;0.55;;;;;;;1.67;100.00;95462.56;5031282;28;20045;-68
2024/02/23 06:17:41;;;;;;;2.03;0.80;;;;;;;1.61;100.00;95463.50;5024931;28;20602;-65
2024/02/23 06:20:08;;;;;;;3.38;0.90;;;;;;;1.68;100.00;95466.81;5024766;28;20121;-67
2024/02/23 06:22:34;;;;;;;2.63;0.70;;;;;;;1.96;100.00;95467.81;5025196;28;20037;-66
2024/02/23 06:25:02;;;;;;;1.90;0.68;;;;;;;1.97;100.00;95466.75;5023911;28;20060;-67
2024/02/23 06:27:29;;;;;;;1.77;0.70;;;;;;;1.89;100.00;95462.63;5024164;28;20053;-67
2024/02/23 06:29:56;;;;;;;1.98;0.60;;;;;;;1.84;100.00;95469.75;5024850;28;20045;-67
2024/02/23 06:32:23;;;;;;;3.10;0.90;;;;;;;1.68;100.00;95469.50;5023028;28;21378;-67
2024/02/23 06:34:49;;;;;;;2.50;1.02;;;;;;;1.51;100.00;95482.84;5029909;28;20047;-67
2024/02/23 06:37:16;;;;;;;4.78;1.35;;;;;;;1.41;100.00;95486.91;5018298;28;20049;-67
2024/02/23 06:39:44;;;;;;;3.05;0.93;;;;;;;1.40;100.00;95489.84;5020276;28;20057;-67
2024/02/23 06:42:10;;;;;;;3.95;0.80;;;;;;;1.45;100.00;95479.28;5020215;28;20493;-67
2024/02/23 06:44:37;;;;;;;4.22;1.20;;;;;;;1.47;100.00;95482.50;5017496;28;20045;-67
2024/02/23 06:47:03;;;;;;;2.83;0.70;;;;;;;1.46;100.00;95480.88;5019116;28;20068;-67
2024/02/23 06:49:30;;;;;;;4.00;1.00;;;;;;;1.56;100.00;95490.91;5014965;28;20147;-67
2024/02/23 06:51:57;;;;;;;6.13;1.23;;;;;;;1.57;100.00;95495.19;5017663;28;20029;-67
2024/02/23 06:54:23;;;;;;;1.52;0.80;;;;;;;1.61;100.00;95482.19;5018493;28;20049;-67
2024/02/23 06:56:50;;;;;;;3.63;0.80;;;;;;;1.63;100.00;95491.59;5015749;28;20772;-67
2024/02/23 06:59:16;;;;;;;4.45;1.00;;;;;;;1.62;100.00;95492.59;5014370;28;20583;-67
2024/02/23 07:01:52;;;;;;;2.55;0.93;;;;;;;1.77;100.00;95488.59;5018301;28;20444;-67
2024/02/23 07:04:19;;;;;;;4.85;1.00;;;;;;;1.84;100.00;95488.44;5018639;28;20682;-67
2024/02/23 07:06:46;;;;;;;4.05;0.65;;;;;;;1.93;100.00;95497.66;5020764;28;20038;-67
2024/02/23 07:09:13;;;;;;;0.90;0.57;;;;;;;2.01;100.00;95501.75;5015847;28;20041;-67
2024/02/23 07:11:41;;;;;;;1.75;0.70;;;;;;;2.18;100.00;95501.75;5030257;28;20408;-67
2024/02/23 07:14:09;;;;;;;2.20;0.52;;;;;;;2.26;100.00;95513.88;5017055;28;20061;-67
2024/02/23 07:16:39;;;;;;;2.15;0.68;;;;;;;2.22;100.00;95516.25;5017521;28;20053;-67
2024/02/23 07:19:07;;;;;;;4.00;0.60;;;;;;;2.29;100.00;95508.84;5028556;28;20116;-67
2024/02/23 07:21:33;;;;;;;1.90;0.60;;;;;;;2.38;100.00;95514.59;5023559;28;20033;-67
2024/02/23 07:24:00;;;;;;;3.67;1.00;;;;;;;2.43;100.00;95508.53;5024520;28;20044;-66
2024/02/23 07:26:29;;;;;;;4.25;0.77;;;;;;;2.54;100.00;95509.47;5017474;28;20049;-67
2024/02/23 07:28:55;;;;;;;1.58;0.60;;;;;;;2.64;100.00;95512.28;5016495;28;20128;-67
2024/02/23 07:31:22;;;;;;;1.75;0.60;;;;;;;2.69;100.00;95515.00;5026846;28;20124;-67
2024/02/23 07:33:49;;;;;;;2.45;0.80;;;;;;;2.74;100.00;95514.28;5025008;28;20041;-67
2024/02/23 07:36:16;;;;;;;2.60;0.82;;;;;;;2.76;100.00;95511.34;5023558;28;20056;-67
2024/02/23 07:38:45;;;;;;;2.42;0.93;;;;;;;2.82;100.00;95507.69;5022832;28;20034;-67
2024/02/23 07:41:15;;;;;;;2.83;1.00;;;;;;;2.97;100.00;95507.88;5018309;28;20452;-67
2024/02/23 07:43:41;;;;;;;3.47;0.75;;;;;;;3.15;100.00;95502.44;5016172;28;20050;-67
2024/02/23 07:46:08;;;;;;;2.65;1.08;;;;;;;3.12;100.00;95495.72;5020878;28;20524;-66
2024/02/23 07:48:36;;;;;;;2.60;0.75;;;;;;;2.90;100.00;95499.22;5021500;28;20052;-67
2024/02/23 07:51:04;;;;;;;1.35;0.60;;;;;;;2.82;100.00;95499.66;5030722;28;20045;-67
2024/02/23 07:53:31;;;;;;;3.65;0.82;;;;;;;2.69;100.00;95500.84;5019641;28;20057;-66
2024/02/23 07:56:02;;;;;;;2.65;0.75;;;;;;;2.58;100.00;95495.34;5019101;28;20049;-67
2024/02/23 07:58:28;;;;;;;2.72;0.80;;;;;;;2.53;100.00;95494.47;5021656;28;20038;-67
2024/02/23 08:00:55;;;;;;;2.17;0.60;;;;;;;2.49;100.00;95498.69;5037910;28;20052;-67
2024/02/23 08:03:21;;;;;;;2.00;0.85;;;;;;;2.45;100.00;95496.53;5023858;28;20045;-67
2024/02/23 08:05:48;;;;;;;3.95;0.70;;;;;;;2.51;100.00;95504.63;5026795;28;20044;-66
2024/02/23 08:08:14;;;;;;;1.67;0.60;;;;;;;2.54;100.00;95501.47;5034069;28;20049;-67
2024/02/23 08:10:41;;;;;;;4.82;1.67;;;;;;;2.50;100.00;95511.03;5025195;28;20594;-67
2024/02/23 08:13:10;;;;;;;4.03;1.05;;;;;;;2.55;100.00;95513.75;5024131;28;20045;-66
2024/02/23 08:15:37;;;;;;;3.55;1.10;;;;;;;2.64;100.00;95508.78;5029958;28;20051;-66
2024/02/23 08:18:03;;;;;;;1.35;0.60;;;;;;;2.72;100.00;95511.03;5034462;28;20041;-66
2024/02/23 08:20:30;;;;;;;5.22;1.00;;;;;;;2.74;100.00;95514.28;5028643;28;20083;-67
2024/02/23 08:22:56;;;;;;;2.88;1.10;;;;;;;2.79;100.00;95502.81;5013765;28;20046;-67
2024/02/23 08:25:23;;;;;;;1.45;0.70;;;;;;;2.83;100.00;95501.28;5026615;28;20116;-67
2024/02/23 08:27:50;;;;;;;1.05;0.57;;;;;;;2.82;100.00;95511.16;5016884;28;20072;-66
2024/02/23 08:30:16;;;;;;;1.52;0.70;;;;;;;2.88;100.00;95508.56;5025755;28;20068;-67
2024/02/23 08:32:43;;;;;;;3.85;0.80;;;;;;;2.97;100.00;95505.19;5020121;28;20042;-66
2024/02/23 08:35:09;;;;;;;5.43;1.40;;;;;;;2.99;100.00;95505.75;5034389;28;20818;-67
2024/02/23 08:37:36;;;;;;;3.00;0.60;;;;;;;3.04;100.00;95488.97;5025742;28;20048;-67
2024/02/23 08:40:03;;;;;;;2.15;0.77;;;;;;;3.23;100.00;95478.75;5019017;28;20119;-66
2024/02/23 08:42:30;;;;;;;3.10;0.70;;;;;;;3.33;100.00;95477.22;5023815;28;20045;-67
2024/02/23 08:44:56;;;;;;;5.43;1.10;;;;;;;3.45;100.00;95474.38;5031048;28;20037;-67
2024/02/23 08:47:24;;;;;;;1.73;0.50;;;;;;;3.46;100.00;95460.75;5028479;28;20100;-67
2024/02/23 08:49:50;;;;;;;2.83;1.00;;;;;;;3.40;100.00;95456.44;5024740;28;20053;-66
2024/02/23 08:52:17;;;;;;;1.48;0.60;;;;;;;3.40;100.00;95458.28;5020920;28;20424;-66
2024/02/23 08:54:43;;;;;;;2.40;0.80;;;;;;;3.32;100.00;95451.53;5023041;28;20041;-66
2024/02/23 08:57:10;;;;;;;2.80;0.85;;;;;;;3.31;100.00;95458.75;5021321;28;20048;-66
2024/02/23 08:59:37;;;;;;;2.85;0.60;;;;;;;3.31;100.00;95458.75;5021629;28;20559;-67
2024/02/23 09:02:03;;;;;;;1.05;0.52;;;;;;;3.34;100.00;95462.78;5016813;28;20041;-67
2024/02/23 09:04:30;;;;;;;3.25;0.80;;;;;;;3.45;100.00;95467.19;5031343;28;20042;-67
2024/02/23 09:06:57;;;;;;;1.10;0.57;;;;;;;3.53;100.00;95468.56;5014649;28;20048;-67
2024/02/23 09:09:25;;;;;;;4.32;0.82;;;;;;;3.62;100.00;95476.97;5021758;28;20219;-67
2024/02/23 09:11:51;;;;;;;0.55;0.40;;;;;;;3.81;100.00;95482.75;5033276;28;20045;-66
2024/02/23 09:14:18;;;;;;;1.95;0.65;;;;;;;3.94;100.00;95486.84;5029545;28;20049;-67
2024/02/23 09:16:46;;;;;;;3.78;0.80;;;;;;;4.00;100.00;95485.84;5036205;28;20049;-66
2024/02/23 09:19:12;;;;;;;3.20;0.63;;;;;;;4.16;100.00;95492.09;5023014;28;20149;-66
2024/02/23 09:21:39;;;;;;;2.22;0.50;;;;;;;4.29;100.00;95493.56;5024598;28;20071;-66
2024/02/23 09:24:06;;;;;;;2.35;0.65;;;;;;;4.45;100.00;95493.63;5026132;28;20053;-66
2024/02/23 09:26:32;;;;;;;2.17;0.80;;;;;;;4.64;100.00;95490.53;5019120;28;20527;-67
2024/02/23 09:28:59;;;;;;;2.90;0.57;;;;;;;4.84;100.00;95489.00;5034662;28;20041;-66
2024/02/23 09:31:28;;;;;;;1.83;0.63;;;;;;;4.97;100.00;95495.75;5030222;28;20553;-66
2024/02/23 09:33:55;;;;;;;0.98;0.60;;;;;;;5.04;100.00;95497.13;5035170;28;20137;-66
2024/02/23 09:36:21;;;;;;;3.05;0.60;;;;;;;5.12;100.00;95487.75;5033859;28;20052;-66
2024/02/23 09:38:48;;;;;;;3.00;0.70;;;;;;;5.33;100.00;95485.13;5019440;28;20049;-66
2024/02/23 09:41:22;;;;;;;2.50;0.40;;;;;;;5.50;100.00;95489.47;5022395;28;20124;-66
2024/02/23 09:43:50;;;;;;;2.17;0.63;;;;;;;5.14;100.00;95498.22;5026750;28;20037;-66
2024/02/23 09:46:17;;;;;;;1.95;0.50;;;;;;;5.18;100.00;95493.94;5020768;28;20049;-66
2024/02/23 09:48:45;;;;;;;1.88;0.57;;;;;;;5.51;100.00;95491.06;5028830;28;20500;-66
2024/02/23 09:51:12;;;;;;;4.53;0.75;;;;;;;5.73;100.00;95496.22;5032417;28;20065;-66
2024/02/23 09:53:39;;;;;;;2.28;0.52;;;;;;;5.85;100.00;95502.13;5025996;28;20045;-66
2024/02/23 09:56:08;;;;;;;1.65;0.50;;;;;;;5.69;100.00;95500.50;5021172;28;20045;-66
2024/02/23 09:58:36;;;;;;;1.05;0.52;;;;;;;5.69;100.00;95503.19;5015510;28;20057;-66
2024/02/23 10:01:03;;;;;;;5.28;0.80;;;;;;;5.81;100.00;95509.13;5023550;28;20037;-66
2024/02/23 10:03:30;;;;;;;3.88;0.73;;;;;;;5.67;100.00;95510.69;5018018;28;20596;-66
2024/02/23 10:05:57;;;;;;;5.03;0.95;;;;;;;5.59;100.00;95503.97;5032764;28;20038;-66
2024/02/23 10:08:24;;;;;;;3.95;0.98;;;;;;;5.62;100.00;95511.50;5018874;28;20046;-66
2024/02/23 10:10:51;;;;;;;7.25;0.70;;;;;;;5.83;100.00;95506.16;5028558;28;20047;-66
2024/02/23 10:13:20;;;;;;;2.65;0.82;;;;;;;5.98;100.00;95514.22;5030178;28;20681;-66
2024/02/23 10:15:47;;;;;;;4.30;0.70;;;;;;;6.05;100.00;95511.28;5016900;28;20045;-66
2024/02/23 10:18:34;;;;;;;0.70;0.35;;;;;;;6.35;100.00;95504.28;5016086;28;20068;-66
2024/02/23 10:21:00;;;;;;;3.60;0.85;;;;;;;5.60;100.00;95508.25;5021240;28;20041;-66
2024/02/23 10:23:28;;;;;;;4.15;1.45;;;;;;;4.92;100.00;95518.00;5020591;28;20045;-66
2024/02/23 10:25:55;;;;;;;2.08;0.70;;;;;;;4.85;100.00;95522.78;5030139;28;20041;-66
2024/02/23 10:28:22;;;;;;;6.10;0.90;;;;;;;4.91;100.00;95527.91;5010711;28;20037;-66
2024/02/23 10:30:49;;;;;;;2.70;0.90;;;;;;;4.88;100.00;95525.75;5018068;28;20424;-66
2024/02/23 10:33:21;;;;;;;5.47;0.80;;;;;;;4.99;100.00;95520.44;5018658;28;20044;-66
2024/02/23 10:35:55;;;;;;;3.30;0.75;;;;;;;4.94;100.00;95513.19;5015565;28;20069;-66
2024/02/23 10:38:23;;;;;;;2.38;0.82;;;;;;;5.25;100.00;95526.72;5019916;28;20440;-66
2024/02/23 10:40:50;;;;;;;6.65;1.10;;;;;;;5.30;100.00;95524.03;5023158;28;20164;-66
2024/02/23 10:43:21;;;;;;;3.15;0.77;;;;;;;5.52;100.00;95525.72;5011969;28;20056;-66
2024/02/23 10:45:49;;;;;;;5.35;0.82;;;;;;;5.71;100.00;95517.13;5030510;28;20582;-66
2024/02/23 10:48:16;;;;;;;5.32;0.80;;;;;;;5.78;100.00;95511.53;5021427;28;20049;-66
2024/02/23 10:50:44;;;;;;;3.67;0.90;;;;;;;5.86;100.00;95513.66;5019691;28;20149;-66
2024/02/23 10:53:12;;;;;;;3.28;0.80;;;;;;;6.17;100.00;95526.34;5016634;28;20037;-66
2024/02/23 10:55:39;;;;;;;3.33;0.80;;;;;;;5.89;100.00;95515.81;5017593;28;20124;-66
2024/02/23 10:58:10;;;;;;;2.65;0.77;;;;;;;5.59;100.00;95512.03;5029361;28;20045;-66
2024/02/23 11:00:38;;;;;;;2.20;0.47;;;;;;;5.86;100.00;95506.41;5017500;28;20051;-66
2024/02/23 11:03:07;;;;;;;5.15;0.82;;;;;;;5.61;100.00;95512.59;5019161;28;20100;-66
2024/02/23 11:05:33;;;;;;;2.55;0.80;;;;;;;5.37;100.00;95510.38;5022866;28;20048;-66
2024/02/23 11:08:00;;;;;;;2.55;0.60;;;;;;;5.55;100.00;95509.06;5018695;28;20519;-66
2024/02/23 11:10:28;;;;;;;4.45;0.50;;;;;;;5.70;100.00;95502.91;5022725;28;20122;-65
2024/02/23 11:13:00;;;;;;;2.42;0.82;;;;;;;5.90;100.00;95498.63;5021791;28;20037;-66
2024/02/23 11:15:33;;;;;;;3.13;0.60;;;;;;;5.74;100.00;95492.44;5028505;28;20065;-65
2024/02/23 11:18:00;;;;;;;5.45;0.80;;;;;;;6.11;100.00;95494.09;5014464;28;20033;-66
2024/02/23 11:20:35;;;;;;;2.60;0.80;;;;;;;6.29;100.00;95488.44;5026355;28;20546;-66
2024/02/23 11:23:01;;;;;;;4.35;0.90;;;;;;;6.36;100.00;95489.78;5022507;28;20039;-65
2024/02/23 11:25:29;;;;;;;4.10;0.88;;;;;;;6.15;99.76;95498.94;5024331;28;20041;-65
2024/02/23 11:27:55;;;;;;;3.25;0.68;;;;;;;6.36;100.00;95491.66;5017043;28;20132;-65
2024/02/23 11:30:22;;;;;;;2.08;0.50;;;;;;;6.53;98.30;95498.63;5020757;28;20091;-65
2024/02/23 11:32:54;;;;;;;5.68;0.73;;;;;;;6.52;98.14;95497.81;5026854;28;20037;-66